createdAt,value
2022-10-13T00:00:18.461Z,12.65
2022-10-13T00:02:21.451Z,12.80
2022-10-13T00:04:24.396Z,11.95
2022-10-13T00:06:27.261Z,12.45
2022-10-13T00:08:30.410Z,12.80
2022-10-13T00:10:36.918Z,12.32
2022-10-13T00:12:39.983Z,12.23
2022-10-13T00:14:43.072Z,11.23
2022-10-13T00:16:45.778Z,12.38
2022-10-13T00:18:49.273Z,12.18
2022-10-13T00:20:51.984Z,11.38
2022-10-13T00:22:54.655Z,12.48
2022-10-13T00:24:57.397Z,12.13
2022-10-13T00:27:00.098Z,11.70
2022-10-13T00:29:02.852Z,11.73
2022-10-13T00:31:23.216Z,11.35
2022-10-13T00:33:25.934Z,11.23
2022-10-13T00:35:28.663Z,12.13
2022-10-13T00:37:31.371Z,11.57
2022-10-13T00:39:34.292Z,12.65
2022-10-13T00:41:36.969Z,11.00
2022-10-13T00:43:58.338Z,12.15
2022-10-13T00:46:01.049Z,11.82
2022-10-13T00:48:03.910Z,13.30
2022-10-13T00:50:14.928Z,11.35
2022-10-13T00:52:20.437Z,12.05
2022-10-13T00:54:25.312Z,12.60
2022-10-13T00:56:29.450Z,11.95
2022-10-13T00:58:33.121Z,13.05
2022-10-13T01:00:36.180Z,12.23
2022-10-13T01:02:39.135Z,12.57
2022-10-13T01:04:45.844Z,12.68
2022-10-13T01:06:49.595Z,12.60
2022-10-13T01:08:52.199Z,11.07
2022-10-13T01:11:32.229Z,12.23
2022-10-13T01:13:42.003Z,12.27
2022-10-13T01:15:59.531Z,12.07
2022-10-13T01:18:11.187Z,11.50
2022-10-13T01:20:37.325Z,11.63
2022-10-13T01:23:01.020Z,12.88
2022-10-13T01:25:29.925Z,12.38
2022-10-13T01:27:44.442Z,11.95
2022-10-13T01:30:05.210Z,12.50
2022-10-13T01:32:26.267Z,12.77
2022-10-13T01:34:48.400Z,12.43
2022-10-13T01:37:09.638Z,12.10
2022-10-13T01:39:32.542Z,11.90
2022-10-13T01:41:40.639Z,12.52
2022-10-13T01:44:03.007Z,11.82
2022-10-13T01:46:30.266Z,11.60
2022-10-13T01:48:36.071Z,14.48
2022-10-13T01:50:39.861Z,11.60
2022-10-13T01:52:43.546Z,12.93
2022-10-13T01:54:54.005Z,13.02
2022-10-13T01:56:57.479Z,14.50
2022-10-13T01:59:06.953Z,12.65
2022-10-13T02:01:28.573Z,12.60
2022-10-13T02:03:39.056Z,12.25
2022-10-13T02:05:49.272Z,12.27
2022-10-13T02:08:22.727Z,12.13
2022-10-13T02:10:50.111Z,12.63
2022-10-13T02:13:01.333Z,12.95
2022-10-13T02:15:07.556Z,12.35
2022-10-13T02:17:13.753Z,12.27
2022-10-13T02:19:18.618Z,12.38
2022-10-13T02:21:21.524Z,11.30
2022-10-13T02:23:24.775Z,13.85
2022-10-13T02:25:28.768Z,11.30
2022-10-13T02:27:31.898Z,13.45
2022-10-13T02:29:34.778Z,12.32
2022-10-13T02:31:38.214Z,12.32
2022-10-13T02:33:40.889Z,13.73
2022-10-13T02:35:44.362Z,13.18
2022-10-13T02:37:47.479Z,12.18
2022-10-13T02:39:50.138Z,14.10
2022-10-13T02:41:53.070Z,12.80
2022-10-13T02:43:55.812Z,10.85
2022-10-13T02:45:58.558Z,12.80
2022-10-13T02:48:01.235Z,11.88
2022-10-13T02:50:04.991Z,11.57
2022-10-13T02:52:07.693Z,12.23
2022-10-13T02:54:10.483Z,13.02
2022-10-13T02:56:13.570Z,13.65
2022-10-13T02:58:16.294Z,11.95
2022-10-13T03:00:20.107Z,12.63
2022-10-13T03:02:23.491Z,10.25
2022-10-13T03:04:26.304Z,12.65
2022-10-13T03:06:29.026Z,11.55
2022-10-13T03:08:35.164Z,9.75
2022-10-13T03:10:38.054Z,9.30
2022-10-13T03:12:40.757Z,7.10
2022-10-13T03:14:43.871Z,6.78
2022-10-13T03:16:46.492Z,6.88
2022-10-13T03:18:49.249Z,6.72
2022-10-13T03:21:06.820Z,7.32
2022-10-13T03:23:09.602Z,6.50
2022-10-13T03:25:12.338Z,6.43
2022-10-13T03:27:15.879Z,6.22
2022-10-13T03:29:18.961Z,6.85
2022-10-13T03:31:21.781Z,7.90
2022-10-13T03:33:24.454Z,7.32
2022-10-13T03:35:27.652Z,9.68
2022-10-13T03:37:30.928Z,8.93
2022-10-13T03:39:33.608Z,10.20
2022-10-13T03:41:36.306Z,12.13
2022-10-13T03:43:39.933Z,12.57
2022-10-13T03:45:42.542Z,12.40
2022-10-13T03:47:45.360Z,12.63
2022-10-13T03:49:48.024Z,13.75
2022-10-13T03:51:50.693Z,14.88
2022-10-13T03:53:54.115Z,12.75
2022-10-13T03:55:57.154Z,15.43
2022-10-13T03:57:59.984Z,15.55
2022-10-13T04:00:04.111Z,15.02
2022-10-13T04:02:07.865Z,14.30
2022-10-13T04:04:12.587Z,14.45
2022-10-13T04:06:15.341Z,15.95
2022-10-13T04:08:18.225Z,15.38
2022-10-13T04:10:21.153Z,14.48
2022-10-13T04:12:24.051Z,13.68
2022-10-13T04:14:27.196Z,14.20
2022-10-13T04:16:31.671Z,14.52
2022-10-13T04:18:34.695Z,13.77
2022-10-13T04:20:39.705Z,15.20
2022-10-13T04:22:42.781Z,15.02
2022-10-13T04:24:45.503Z,18.30
2022-10-13T04:26:48.269Z,15.93
2022-10-13T04:28:52.274Z,15.25
2022-10-13T04:30:55.030Z,16.55
2022-10-13T04:32:57.753Z,16.92
2022-10-13T04:35:00.986Z,17.40
2022-10-13T04:37:03.650Z,18.17
2022-10-13T04:39:06.301Z,17.20
2022-10-13T04:41:10.042Z,17.02
2022-10-13T04:43:12.679Z,18.55
2022-10-13T04:45:15.355Z,17.58
2022-10-13T04:47:18.014Z,17.92
2022-10-13T04:49:20.763Z,17.27
2022-10-13T04:51:25.315Z,18.05
2022-10-13T04:53:38.326Z,17.92
2022-10-13T04:55:41.051Z,18.38
2022-10-13T04:57:43.766Z,16.77
2022-10-13T04:59:46.843Z,17.98
2022-10-13T05:01:49.581Z,16.15
2022-10-13T05:03:56.854Z,16.70
2022-10-13T05:05:59.582Z,16.10
2022-10-13T05:08:02.270Z,15.90
2022-10-13T05:10:05.555Z,15.05
2022-10-13T05:12:08.230Z,15.60
2022-10-13T05:14:10.914Z,15.65
2022-10-13T05:16:15.366Z,15.98
2022-10-13T05:18:18.530Z,15.32
2022-10-13T05:20:21.307Z,15.07
2022-10-13T05:22:23.940Z,14.82
2022-10-13T05:24:36.686Z,15.57
2022-10-13T05:26:40.297Z,15.45
2022-10-13T05:28:44.215Z,15.85
2022-10-13T05:30:47.109Z,16.17
2022-10-13T05:32:53.714Z,16.67
2022-10-13T05:34:56.637Z,16.33
2022-10-13T05:37:00.411Z,16.05
2022-10-13T05:39:05.879Z,15.77
2022-10-13T05:41:14.027Z,14.90
2022-10-13T05:43:16.719Z,15.98
2022-10-13T05:45:21.807Z,18.80
2022-10-13T05:47:28.364Z,16.48
2022-10-13T05:49:31.141Z,15.57
2022-10-13T05:51:40.027Z,16.17
2022-10-13T05:53:51.037Z,15.63
2022-10-13T05:55:58.568Z,16.00
2022-10-13T05:58:01.907Z,16.27
2022-10-13T06:00:09.350Z,15.95
2022-10-13T06:02:16.187Z,15.35
2022-10-13T06:04:25.387Z,14.15
2022-10-13T06:06:31.504Z,13.40
2022-10-13T06:08:34.527Z,12.60
2022-10-13T06:10:38.296Z,13.75
2022-10-13T06:12:41.452Z,13.38
2022-10-13T06:14:44.139Z,12.48
2022-10-13T06:16:46.859Z,14.30
2022-10-13T06:18:49.521Z,12.35
2022-10-13T06:20:52.230Z,11.55
2022-10-13T06:22:57.823Z,11.88
2022-10-13T06:25:00.527Z,11.15
2022-10-13T06:27:03.193Z,12.90
2022-10-13T06:29:06.050Z,11.95
2022-10-13T06:31:08.743Z,12.73
2022-10-13T06:33:11.378Z,12.63
2022-10-13T06:35:14.747Z,12.40
2022-10-13T06:37:17.520Z,12.77
2022-10-13T06:39:20.206Z,14.18
2022-10-13T06:41:22.874Z,14.70
2022-10-13T06:43:31.734Z,13.43
2022-10-13T06:45:38.661Z,12.18
2022-10-13T06:47:41.474Z,13.27
2022-10-13T06:49:44.122Z,13.88
2022-10-13T06:51:46.709Z,13.95
2022-10-13T06:53:49.350Z,12.80
2022-10-13T06:55:52.690Z,13.35
2022-10-13T06:57:55.490Z,12.93
2022-10-13T06:59:58.078Z,12.75
2022-10-13T07:02:00.826Z,12.98
2022-10-13T07:04:03.438Z,12.77
2022-10-13T07:06:06.953Z,15.48
2022-10-13T07:08:09.612Z,12.25
2022-10-13T07:10:12.349Z,13.23
2022-10-13T07:12:15.077Z,12.07
2022-10-13T07:14:17.698Z,13.52
2022-10-13T07:16:20.259Z,13.55
2022-10-13T07:18:22.829Z,15.00
2022-10-13T07:20:26.012Z,10.25
2022-10-13T07:22:28.677Z,10.93
2022-10-13T07:24:31.394Z,12.98
2022-10-13T07:26:34.385Z,12.70
2022-10-13T07:28:37.687Z,11.60
2022-10-13T07:30:40.630Z,11.23
2022-10-13T07:32:43.319Z,12.02
2022-10-13T07:34:45.953Z,18.50
2022-10-13T07:36:48.621Z,12.95
2022-10-13T07:38:51.281Z,13.13
2022-10-13T07:40:53.844Z,11.10
2022-10-13T07:42:57.834Z,11.85
2022-10-13T07:45:00.492Z,12.00
2022-10-13T07:47:06.217Z,12.15
2022-10-13T07:49:11.177Z,13.20
2022-10-13T07:51:16.362Z,12.05
2022-10-13T07:53:19.186Z,12.38
2022-10-13T07:55:21.786Z,12.95
2022-10-13T07:57:27.238Z,15.75
2022-10-13T07:59:32.119Z,15.25
2022-10-13T08:01:34.777Z,13.18
2022-10-13T08:03:37.918Z,13.07
2022-10-13T08:05:40.700Z,14.25
2022-10-13T08:07:43.260Z,13.40
2022-10-13T08:09:45.940Z,15.35
2022-10-13T08:11:49.107Z,14.68
2022-10-13T08:13:52.942Z,13.35
2022-10-13T08:15:55.562Z,12.73
2022-10-13T08:17:58.231Z,11.38
2022-10-13T08:20:00.916Z,12.93
2022-10-13T08:22:07.702Z,12.48
2022-10-13T08:24:14.871Z,10.55
2022-10-13T08:26:24.501Z,11.10
2022-10-13T08:28:29.191Z,11.70
2022-10-13T08:30:32.537Z,12.30
2022-10-13T08:32:35.373Z,11.45
2022-10-13T08:34:38.331Z,13.27
2022-10-13T08:36:41.452Z,10.98
2022-10-13T08:38:45.126Z,12.30
2022-10-13T08:40:49.633Z,13.27
2022-10-13T08:42:55.563Z,10.65
2022-10-13T08:45:28.820Z,10.40
2022-10-13T08:47:28.061Z,9.43
2022-10-13T08:49:31.541Z,12.15
2022-10-13T08:51:34.825Z,11.75
2022-10-13T08:53:41.582Z,11.57
2022-10-13T08:55:55.469Z,11.45
2022-10-13T08:57:59.121Z,10.95
2022-10-13T09:00:03.420Z,10.35
2022-10-13T09:02:22.453Z,11.57
2022-10-13T09:04:41.802Z,10.40
2022-10-13T09:06:57.047Z,9.38
2022-10-13T09:09:08.900Z,7.80
2022-10-13T09:13:15.466Z,8.68
2022-10-13T09:15:18.773Z,10.35
2022-10-13T09:17:29.540Z,8.90
2022-10-13T09:19:36.565Z,8.02
2022-10-13T09:21:39.839Z,8.48
2022-10-13T09:23:42.651Z,7.40
2022-10-13T09:25:49.451Z,6.70
2022-10-13T09:27:58.125Z,8.15
2022-10-13T09:30:35.349Z,8.30
2022-10-13T09:32:38.383Z,8.13
2022-10-13T09:34:41.694Z,8.73
2022-10-13T09:37:03.616Z,9.45
2022-10-13T09:39:17.351Z,7.57
2022-10-13T09:41:22.106Z,7.60
2022-10-13T09:43:36.502Z,7.85
2022-10-13T09:45:43.456Z,9.50
2022-10-13T09:48:02.626Z,8.80
2022-10-13T09:50:19.242Z,7.85
2022-10-13T09:52:22.720Z,6.35
2022-10-13T09:54:34.397Z,7.45
2022-10-13T09:56:46.661Z,7.47
2022-10-13T09:59:22.000Z,7.30
2022-10-13T10:01:28.688Z,6.97
2022-10-13T10:03:35.701Z,7.40
2022-10-13T10:05:49.887Z,8.02
2022-10-13T10:07:53.716Z,7.85
2022-10-13T10:10:16.390Z,7.78
2022-10-13T10:12:27.559Z,8.43
2022-10-13T10:14:36.450Z,8.77
2022-10-13T10:16:46.847Z,8.30
2022-10-13T10:18:58.918Z,7.88
2022-10-13T10:21:07.949Z,8.27
2022-10-13T10:23:37.174Z,8.10
2022-10-13T10:25:59.458Z,8.30
2022-10-13T10:28:32.862Z,6.85
2022-10-13T10:30:43.789Z,7.75
2022-10-13T10:33:04.580Z,7.18
2022-10-13T10:35:19.341Z,6.82
2022-10-13T10:37:51.330Z,6.55
2022-10-13T10:40:31.416Z,7.43
2022-10-13T10:42:58.984Z,6.38
2022-10-13T10:45:04.702Z,6.47
2022-10-13T10:47:21.040Z,5.75
2022-10-13T10:49:31.502Z,7.00
2022-10-13T10:51:38.186Z,7.10
2022-10-13T10:54:09.685Z,6.40
2022-10-13T10:56:32.333Z,5.95
2022-10-13T10:58:37.681Z,6.35
2022-10-13T11:00:55.882Z,6.68
2022-10-13T11:03:04.109Z,5.85
2022-10-13T11:05:06.897Z,5.88
2022-10-13T11:07:24.839Z,5.53
2022-10-13T11:09:59.915Z,6.28
2022-10-13T11:12:02.582Z,5.00
2022-10-13T11:14:05.119Z,5.57
2022-10-13T11:16:32.406Z,4.85
2022-10-13T11:19:06.087Z,5.60
2022-10-13T11:21:09.383Z,5.40
2022-10-13T11:23:14.893Z,6.32
2022-10-13T11:25:42.141Z,5.28
2022-10-13T11:27:45.285Z,5.80
2022-10-13T11:29:49.128Z,5.78
2022-10-13T11:31:55.287Z,5.95
2022-10-13T11:34:00.916Z,5.57
2022-10-13T11:36:40.087Z,5.50
2022-10-13T11:38:43.726Z,4.70
2022-10-13T11:41:08.929Z,5.05
2022-10-13T11:43:30.142Z,5.63
2022-10-13T11:45:47.010Z,7.03
2022-10-13T11:48:03.907Z,6.10
2022-10-13T11:50:39.973Z,6.70
2022-10-13T11:52:56.612Z,7.03
2022-10-13T11:55:11.687Z,6.55
2022-10-13T11:57:24.818Z,7.22
2022-10-13T11:59:33.958Z,6.65
2022-10-13T12:01:36.587Z,5.88
2022-10-13T12:03:44.223Z,6.10
2022-10-13T12:05:49.334Z,5.65
2022-10-13T12:07:54.913Z,6.97
2022-10-13T12:09:58.578Z,6.60
2022-10-13T12:12:13.970Z,7.07
2022-10-13T12:14:24.321Z,6.82
2022-10-13T12:16:28.869Z,5.53
2022-10-13T12:18:38.379Z,6.32
2022-10-13T12:20:41.131Z,6.28
2022-10-13T12:22:54.530Z,5.60
2022-10-13T12:25:06.557Z,5.40
2022-10-13T12:27:22.184Z,5.22
2022-10-13T12:29:27.927Z,5.10
2022-10-13T12:31:40.862Z,5.32
2022-10-13T12:33:43.651Z,5.47
2022-10-13T12:35:46.474Z,4.40
2022-10-13T12:37:49.594Z,5.90
2022-10-13T12:39:52.611Z,6.18
2022-10-13T12:41:56.490Z,5.85
2022-10-13T12:44:02.409Z,5.90
2022-10-13T12:46:09.634Z,6.15
2022-10-13T12:48:36.286Z,5.32
2022-10-13T12:50:39.281Z,5.50
2022-10-13T12:52:42.032Z,6.30
2022-10-13T12:55:18.246Z,6.25
2022-10-13T12:57:27.277Z,7.20
2022-10-13T12:59:31.158Z,5.82
2022-10-13T13:01:35.427Z,5.35
2022-10-13T13:03:39.287Z,4.55
2022-10-13T13:05:51.843Z,5.28
2022-10-13T13:07:55.523Z,5.35
2022-10-13T13:10:19.570Z,4.68
2022-10-13T13:12:26.578Z,5.60
2022-10-13T13:14:39.381Z,5.80
2022-10-13T13:16:42.090Z,5.18
2022-10-13T13:18:46.281Z,5.72
2022-10-13T13:20:49.367Z,5.50
2022-10-13T13:22:52.152Z,5.30
2022-10-13T13:24:54.919Z,5.05
2022-10-13T13:26:57.701Z,4.78
2022-10-13T13:29:00.551Z,4.07
2022-10-13T13:31:03.681Z,5.15
2022-10-13T13:33:06.518Z,4.00
2022-10-13T13:35:10.203Z,4.32
2022-10-13T13:37:17.733Z,4.85
2022-10-13T13:39:20.778Z,4.20
2022-10-13T13:41:27.785Z,4.60
2022-10-13T13:43:30.433Z,5.07
2022-10-13T13:45:34.108Z,4.15
2022-10-13T13:47:37.159Z,4.55
2022-10-13T13:49:40.213Z,4.68
2022-10-13T13:51:43.026Z,4.85
2022-10-13T13:53:46.129Z,4.60
2022-10-13T13:55:49.118Z,5.40
2022-10-13T13:57:52.158Z,4.90
2022-10-13T13:59:54.925Z,6.13
2022-10-13T14:01:57.626Z,5.45
2022-10-13T14:04:00.383Z,6.20
2022-10-13T14:06:03.140Z,5.82
2022-10-13T14:08:06.025Z,5.57
2022-10-13T14:10:10.112Z,5.72
2022-10-13T14:12:13.382Z,4.90
2022-10-13T14:14:16.369Z,6.53
2022-10-13T14:16:19.029Z,5.13
2022-10-13T14:18:21.630Z,5.30
2022-10-13T14:20:24.477Z,5.50
2022-10-13T14:22:27.328Z,6.95
2022-10-13T14:24:30.274Z,7.85
2022-10-13T14:26:34.063Z,8.50
2022-10-13T14:28:36.878Z,6.47
2022-10-13T14:30:40.555Z,9.05
2022-10-13T14:32:43.425Z,7.00
2022-10-13T14:34:46.250Z,7.25
2022-10-13T14:36:48.969Z,8.52
2022-10-13T14:38:52.089Z,7.63
2022-10-13T14:40:59.955Z,9.25
2022-10-13T14:43:02.594Z,6.95
2022-10-13T14:45:06.844Z,7.07
2022-10-13T14:47:09.659Z,7.00
2022-10-13T14:49:12.502Z,9.15
2022-10-13T14:51:15.496Z,8.48
2022-10-13T14:53:18.159Z,6.78
2022-10-13T14:55:20.761Z,7.63
2022-10-13T14:57:23.709Z,8.38
2022-10-13T14:59:26.752Z,8.00
2022-10-13T15:01:30.565Z,7.78
2022-10-13T15:03:33.284Z,7.30
2022-10-13T15:05:35.988Z,8.07
2022-10-13T15:07:41.096Z,8.30
2022-10-13T15:09:53.201Z,8.68
2022-10-13T15:12:06.889Z,8.40
2022-10-13T15:14:09.964Z,9.40
2022-10-13T15:16:19.230Z,8.30
2022-10-13T15:18:25.768Z,7.00
2022-10-13T15:20:31.104Z,8.27
2022-10-13T15:22:33.733Z,10.20
2022-10-13T15:24:36.294Z,8.52
2022-10-13T15:26:38.907Z,8.38
2022-10-13T15:28:47.345Z,7.90
2022-10-13T15:30:50.642Z,7.97
2022-10-13T15:32:53.323Z,9.07
2022-10-13T15:34:56.565Z,8.75
2022-10-13T15:36:59.269Z,9.02
2022-10-13T15:39:01.895Z,7.53
2022-10-13T15:41:06.235Z,9.13
2022-10-13T15:43:09.263Z,8.73
2022-10-13T15:45:12.140Z,7.97
2022-10-13T15:47:17.184Z,8.48
2022-10-13T15:49:20.231Z,6.53
2022-10-13T15:51:24.490Z,6.53
2022-10-13T15:53:27.159Z,7.53
2022-10-13T15:55:30.006Z,7.65
2022-10-13T15:57:32.741Z,9.02
2022-10-13T15:59:35.398Z,10.07
2022-10-13T16:01:38.088Z,7.82
2022-10-13T16:03:41.146Z,8.75
2022-10-13T16:05:45.591Z,7.28
2022-10-13T16:07:48.863Z,6.35
2022-10-13T16:09:51.521Z,7.63
2022-10-13T16:11:54.862Z,7.32
2022-10-13T16:13:57.424Z,9.25
2022-10-13T16:16:01.407Z,8.25
2022-10-13T16:18:04.468Z,6.88
2022-10-13T16:20:08.158Z,7.20
2022-10-13T16:22:10.916Z,7.00
2022-10-13T16:24:13.450Z,7.35
2022-10-13T16:26:19.991Z,6.13
2022-10-13T16:28:23.252Z,5.75
2022-10-13T16:30:25.903Z,5.50
2022-10-13T16:32:28.470Z,4.32
2022-10-13T16:34:31.214Z,4.85
2022-10-13T16:36:34.146Z,5.07
2022-10-13T16:38:37.053Z,5.60
2022-10-13T16:40:40.228Z,5.68
2022-10-13T16:42:43.453Z,5.45
2022-10-13T16:44:46.034Z,4.35
2022-10-13T16:46:50.422Z,4.30
2022-10-13T16:48:53.042Z,4.20
2022-10-13T16:50:55.677Z,3.55
2022-10-13T16:52:59.819Z,3.30
2022-10-13T16:55:03.198Z,2.92
2022-10-13T16:57:06.660Z,2.92
2022-10-13T16:59:10.658Z,2.95
2022-10-13T17:01:13.580Z,2.58
2022-10-13T17:03:16.414Z,3.28
2022-10-13T17:05:19.103Z,2.72
2022-10-13T17:07:21.875Z,3.35
2022-10-13T17:09:24.650Z,3.53
2022-10-13T17:11:30.480Z,3.88
2022-10-13T17:13:36.153Z,2.97
2022-10-13T17:15:39.216Z,3.30
2022-10-13T17:17:42.361Z,3.33
2022-10-13T17:19:45.571Z,2.20
2022-10-13T17:21:48.783Z,2.97
2022-10-13T17:23:51.792Z,2.25
2022-10-13T17:25:55.383Z,2.60
2022-10-13T17:27:58.309Z,2.55
2022-10-13T17:30:01.293Z,3.03
2022-10-13T17:32:06.418Z,3.55
2022-10-13T17:34:09.594Z,3.30
2022-10-13T17:36:21.297Z,3.08
2022-10-13T17:38:24.242Z,2.88
2022-10-13T17:40:27.374Z,3.55
2022-10-13T17:42:30.089Z,3.05
2022-10-13T17:44:32.971Z,3.28
2022-10-13T17:46:38.690Z,3.20
2022-10-13T17:48:43.065Z,3.85
2022-10-13T17:50:46.075Z,3.25
2022-10-13T17:52:48.866Z,3.17
2022-10-13T17:54:51.503Z,3.97
2022-10-13T17:56:57.105Z,3.08
2022-10-13T17:59:02.030Z,3.65
2022-10-13T18:01:13.526Z,3.58
2022-10-13T18:03:16.499Z,3.55
2022-10-13T18:05:19.333Z,3.45
2022-10-13T18:07:22.481Z,4.53
2022-10-13T18:09:25.658Z,3.67
2022-10-13T18:11:28.386Z,2.80
2022-10-13T18:13:31.083Z,2.95
2022-10-13T18:15:38.356Z,3.47
2022-10-13T18:17:41.000Z,3.20
2022-10-13T18:19:43.957Z,2.70
2022-10-13T18:21:46.586Z,2.35
2022-10-13T18:23:50.113Z,3.17
2022-10-13T18:25:52.769Z,3.15
2022-10-13T18:27:55.562Z,2.40
2022-10-13T18:29:59.521Z,2.85
2022-10-13T18:32:02.459Z,3.10
2022-10-13T18:34:07.758Z,3.28
2022-10-13T18:36:25.616Z,3.00
2022-10-13T18:38:28.548Z,3.53
2022-10-13T18:40:31.181Z,3.20
2022-10-13T18:42:33.794Z,2.80
2022-10-13T18:44:36.423Z,2.67
2022-10-13T18:46:39.873Z,3.05
2022-10-13T18:48:42.577Z,2.85
2022-10-13T18:50:45.271Z,3.72
2022-10-13T18:52:48.030Z,3.05
2022-10-13T18:54:51.208Z,2.38
2022-10-13T18:56:54.066Z,2.67
2022-10-13T18:58:59.830Z,3.30
2022-10-13T19:01:05.257Z,3.25
2022-10-13T19:03:08.432Z,3.22
2022-10-13T19:05:11.369Z,3.20
2022-10-13T19:07:13.956Z,3.35
2022-10-13T19:09:17.569Z,3.55
2022-10-13T19:11:21.602Z,2.55
2022-10-13T19:13:26.265Z,3.33
2022-10-13T19:15:28.816Z,2.53
2022-10-13T19:17:31.456Z,3.33
2022-10-13T19:19:34.323Z,3.38
2022-10-13T19:21:38.382Z,2.80
2022-10-13T19:23:41.422Z,2.78
2022-10-13T19:25:44.385Z,3.38
2022-10-13T19:27:47.113Z,3.42
2022-10-13T19:29:52.477Z,3.65
2022-10-13T19:31:55.049Z,2.97
2022-10-13T19:33:58.637Z,3.00
2022-10-13T19:36:01.231Z,2.65
2022-10-13T19:38:03.894Z,3.05
2022-10-13T19:40:08.661Z,3.13
2022-10-13T19:42:11.372Z,3.20
2022-10-13T19:44:15.840Z,3.70
2022-10-13T19:46:18.657Z,3.20
2022-10-13T19:48:21.326Z,3.03
2022-10-13T19:50:24.373Z,3.28
2022-10-13T19:52:27.182Z,2.60
2022-10-13T19:54:33.765Z,2.88
2022-10-13T19:56:36.789Z,2.10
2022-10-13T19:58:39.465Z,3.00
2022-10-13T20:00:46.392Z,2.60
2022-10-13T20:02:49.229Z,2.80
2022-10-13T20:04:52.206Z,2.65
2022-10-13T20:06:55.067Z,3.33
2022-10-13T20:08:59.131Z,2.42
2022-10-13T20:11:09.935Z,2.88
2022-10-13T20:13:12.610Z,3.25
2022-10-13T20:15:15.493Z,2.30
2022-10-13T20:17:18.411Z,2.95
2022-10-13T20:19:21.225Z,3.08
2022-10-13T20:21:24.968Z,3.22
2022-10-13T20:23:27.677Z,3.08
2022-10-13T20:25:30.599Z,2.78
2022-10-13T20:27:33.497Z,3.00
2022-10-13T20:29:36.192Z,3.33
2022-10-13T20:31:38.819Z,3.35
2022-10-13T20:33:42.368Z,3.75
2022-10-13T20:35:45.399Z,3.45
2022-10-13T20:37:47.994Z,3.83
2022-10-13T20:39:51.116Z,3.60
2022-10-13T20:41:53.823Z,3.05
2022-10-13T20:43:59.018Z,3.20
2022-10-13T20:46:03.861Z,3.50
2022-10-13T20:48:06.604Z,2.83
2022-10-13T20:50:09.309Z,2.45
2022-10-13T20:52:11.987Z,3.15
2022-10-13T20:54:15.655Z,3.45
2022-10-13T20:56:22.124Z,2.95
2022-10-13T20:58:29.637Z,2.25
2022-10-13T21:00:32.265Z,2.35
2022-10-13T21:02:34.939Z,2.10
2022-10-13T21:04:37.590Z,3.58
2022-10-13T21:06:41.872Z,2.83
2022-10-13T21:08:46.043Z,2.95
2022-10-13T21:10:50.047Z,3.47
2022-10-13T21:12:53.322Z,2.30
2022-10-13T21:14:56.065Z,2.53
2022-10-13T21:16:58.919Z,2.17
2022-10-13T21:19:02.181Z,2.60
2022-10-13T21:21:07.298Z,2.33
2022-10-13T21:23:11.782Z,2.25
2022-10-13T21:25:14.741Z,3.22
2022-10-13T21:27:17.530Z,3.00
2022-10-13T21:29:20.225Z,2.78
2022-10-13T21:31:24.322Z,2.58
2022-10-13T21:33:26.961Z,2.13
2022-10-13T21:35:29.588Z,2.42
2022-10-13T21:37:39.127Z,2.17
2022-10-13T21:39:41.762Z,2.30
2022-10-13T21:41:44.483Z,2.00
2022-10-13T21:43:47.581Z,2.58
2022-10-13T21:45:50.226Z,2.72
2022-10-13T21:47:52.932Z,2.58
2022-10-13T21:49:55.572Z,3.00
2022-10-13T21:51:58.274Z,2.08
2022-10-13T21:54:06.501Z,2.50
2022-10-13T21:56:11.936Z,2.50
2022-10-13T21:58:14.563Z,2.38
2022-10-13T22:00:17.337Z,2.20
2022-10-13T22:02:20.088Z,2.08
2022-10-13T22:04:22.722Z,2.63
2022-10-13T22:06:26.162Z,2.17
2022-10-13T22:08:38.197Z,2.20
2022-10-13T22:10:41.781Z,2.35
2022-10-13T22:12:44.845Z,2.10
2022-10-13T22:14:47.512Z,2.15
2022-10-13T22:16:51.850Z,2.38
2022-10-13T22:18:57.263Z,2.17
2022-10-13T22:21:04.691Z,1.63
2022-10-13T22:23:07.397Z,1.98
2022-10-13T22:25:10.137Z,1.95
2022-10-13T22:27:13.784Z,1.58
2022-10-13T22:29:19.738Z,2.20
2022-10-13T22:31:22.487Z,2.20
2022-10-13T22:33:25.076Z,2.47
2022-10-13T22:35:27.787Z,2.10
2022-10-13T22:37:31.063Z,2.22
2022-10-13T22:39:33.893Z,1.75
2022-10-13T22:41:36.540Z,2.17
2022-10-13T22:43:39.422Z,2.00
2022-10-13T22:45:52.533Z,2.55
2022-10-13T22:47:55.150Z,1.90
2022-10-13T22:49:57.695Z,2.13
2022-10-13T22:52:00.686Z,1.98
2022-10-13T22:54:04.147Z,2.20
2022-10-13T22:56:09.166Z,2.22
2022-10-13T22:58:11.942Z,2.90
2022-10-13T23:00:15.127Z,2.67
2022-10-13T23:02:17.709Z,2.28
2022-10-13T23:04:20.501Z,2.00
2022-10-13T23:06:28.483Z,1.85
2022-10-13T23:08:31.693Z,2.05
2022-10-13T23:10:34.465Z,2.30
2022-10-13T23:12:37.151Z,2.13
2022-10-13T23:14:39.956Z,2.28
2022-10-13T23:16:43.121Z,2.08
2022-10-13T23:18:45.958Z,2.42
2022-10-13T23:20:51.052Z,2.05
2022-10-13T23:22:55.886Z,2.13
2022-10-13T23:24:58.627Z,1.95
2022-10-13T23:27:01.489Z,1.98
2022-10-13T23:29:05.411Z,1.75
2022-10-13T23:31:17.937Z,2.20
2022-10-13T23:33:20.575Z,1.80
2022-10-13T23:35:23.513Z,1.80
2022-10-13T23:37:26.146Z,1.90
2022-10-13T23:39:29.779Z,1.83
2022-10-13T23:41:33.014Z,2.03
2022-10-13T23:43:36.127Z,1.80
2022-10-13T23:45:38.766Z,2.55
2022-10-13T23:47:41.430Z,2.08
2022-10-13T23:49:43.976Z,1.80
2022-10-13T23:51:46.559Z,1.90
2022-10-13T23:53:50.082Z,1.92
2022-10-13T23:55:52.791Z,2.40
2022-10-13T23:57:55.953Z,2.10
2022-10-13T23:59:58.742Z,2.10
